sensor_id;sensor_type;location;lat;lon;timestamp;P1;durP1;ratioP1;P2;durP2;ratioP2
2187;SDS011;1100;52.014;8.540;2022-08-03T00:02:10;5.10;;;2.83;;
2187;SDS011;1100;52.014;8.540;2022-08-03T00:04:36;5.20;;;2.85;;
2187;SDS011;1100;52.014;8.540;2022-08-03T00:07:02;5.23;;;2.97;;
2187;SDS011;1100;52.014;8.540;2022-08-03T00:09:27;7.60;;;2.90;;
2187;SDS011;1100;52.014;8.540;2022-08-03T00:11:55;5.47;;;2.60;;
2187;SDS011;1100;52.014;8.540;2022-08-03T00:14:20;5.82;;;2.90;;
2187;SDS011;1100;52.014;8.540;2022-08-03T00:16:45;7.20;;;2.87;;
2187;SDS011;1100;52.014;8.540;2022-08-03T00:19:11;7.37;;;2.97;;
2187;SDS011;1100;52.014;8.540;2022-08-03T00:21:36;5.80;;;3.07;;
2187;SDS011;1100;52.014;8.540;2022-08-03T00:24:01;6.40;;;2.67;;
2187;SDS011;1100;52.014;8.540;2022-08-03T00:26:27;5.35;;;2.70;;
2187;SDS011;1100;52.014;8.540;2022-08-03T00:28:52;4.97;;;2.80;;
2187;SDS011;1100;52.014;8.540;2022-08-03T00:31:17;7.10;;;3.20;;
2187;SDS011;1100;52.014;8.540;2022-08-03T00:33:43;6.53;;;2.90;;
2187;SDS011;1100;52.014;8.540;2022-08-03T00:36:08;6.40;;;2.83;;
2187;SDS011;1100;52.014;8.540;2022-08-03T00:38:33;6.30;;;3.10;;
2187;SDS011;1100;52.014;8.540;2022-08-03T00:40:59;6.23;;;2.87;;
2187;SDS011;1100;52.014;8.540;2022-08-03T00:43:24;5.63;;;3.00;;
2187;SDS011;1100;52.014;8.540;2022-08-03T00:45:53;6.50;;;3.03;;
2187;SDS011;1100;52.014;8.540;2022-08-03T00:48:21;5.10;;;2.67;;
2187;SDS011;1100;52.014;8.540;2022-08-03T00:50:47;5.27;;;2.53;;
2187;SDS011;1100;52.014;8.540;2022-08-03T00:53:12;5.72;;;2.70;;
2187;SDS011;1100;52.014;8.540;2022-08-03T00:55:39;4.90;;;2.63;;
2187;SDS011;1100;52.014;8.540;2022-08-03T00:58:04;7.07;;;2.50;;
2187;SDS011;1100;52.014;8.540;2022-08-03T01:00:32;7.18;;;2.97;;
2187;SDS011;1100;52.014;8.540;2022-08-03T01:03:02;5.20;;;2.83;;
2187;SDS011;1100;52.014;8.540;2022-08-03T01:08:35;5.07;;;2.90;;
2187;SDS011;1100;52.014;8.540;2022-08-03T01:11:13;6.32;;;3.25;;
2187;SDS011;1100;52.014;8.540;2022-08-03T01:13:46;5.78;;;3.20;;
2187;SDS011;1100;52.014;8.540;2022-08-03T01:16:32;6.40;;;2.85;;
2187;SDS011;1100;52.014;8.540;2022-08-03T01:19:24;6.80;;;3.17;;
2187;SDS011;1100;52.014;8.540;2022-08-03T01:30:07;6.32;;;2.80;;
2187;SDS011;1100;52.014;8.540;2022-08-03T01:32:36;6.90;;;2.95;;
2187;SDS011;1100;52.014;8.540;2022-08-03T01:35:16;5.93;;;2.77;;
2187;SDS011;1100;52.014;8.540;2022-08-03T01:38:08;6.78;;;2.78;;
2187;SDS011;1100;52.014;8.540;2022-08-03T01:40:40;5.60;;;2.70;;
2187;SDS011;1100;52.014;8.540;2022-08-03T01:43:10;5.50;;;2.65;;
2187;SDS011;1100;52.014;8.540;2022-08-03T01:45:38;6.43;;;3.10;;
2187;SDS011;1100;52.014;8.540;2022-08-03T01:48:04;5.63;;;2.70;;
2187;SDS011;1100;52.014;8.540;2022-08-03T01:50:31;7.63;;;3.10;;
2187;SDS011;1100;52.014;8.540;2022-08-03T01:52:58;6.93;;;2.80;;
2187;SDS011;1100;52.014;8.540;2022-08-03T01:55:25;5.72;;;2.70;;
2187;SDS011;1100;52.014;8.540;2022-08-03T01:57:54;4.93;;;2.95;;
2187;SDS011;1100;52.014;8.540;2022-08-03T02:00:21;5.30;;;2.77;;
2187;SDS011;1100;52.014;8.540;2022-08-03T02:02:48;6.88;;;2.70;;
2187;SDS011;1100;52.014;8.540;2022-08-03T02:05:16;6.70;;;3.20;;
2187;SDS011;1100;52.014;8.540;2022-08-03T02:07:44;5.75;;;2.90;;
2187;SDS011;1100;52.014;8.540;2022-08-03T02:10:13;5.22;;;2.40;;
2187;SDS011;1100;52.014;8.540;2022-08-03T02:12:43;5.90;;;2.93;;
2187;SDS011;1100;52.014;8.540;2022-08-03T02:15:09;5.57;;;3.05;;
2187;SDS011;1100;52.014;8.540;2022-08-03T02:17:38;4.57;;;2.60;;
2187;SDS011;1100;52.014;8.540;2022-08-03T02:20:06;5.88;;;2.72;;
2187;SDS011;1100;52.014;8.540;2022-08-03T02:22:32;5.45;;;2.67;;
2187;SDS011;1100;52.014;8.540;2022-08-03T02:24:59;6.83;;;3.00;;
2187;SDS011;1100;52.014;8.540;2022-08-03T02:27:26;5.70;;;2.92;;
2187;SDS011;1100;52.014;8.540;2022-08-03T02:30:04;5.95;;;2.75;;
2187;SDS011;1100;52.014;8.540;2022-08-03T02:32:33;5.20;;;2.50;;
2187;SDS011;1100;52.014;8.540;2022-08-03T02:35:01;5.60;;;2.80;;
2187;SDS011;1100;52.014;8.540;2022-08-03T02:37:30;5.53;;;2.90;;
2187;SDS011;1100;52.014;8.540;2022-08-03T02:40:03;6.43;;;2.78;;
2187;SDS011;1100;52.014;8.540;2022-08-03T02:42:32;5.57;;;2.83;;
2187;SDS011;1100;52.014;8.540;2022-08-03T02:44:59;5.68;;;2.45;;
2187;SDS011;1100;52.014;8.540;2022-08-03T02:47:29;4.57;;;2.57;;
2187;SDS011;1100;52.014;8.540;2022-08-03T02:49:56;5.30;;;2.80;;
2187;SDS011;1100;52.014;8.540;2022-08-03T02:52:27;5.57;;;2.83;;
2187;SDS011;1100;52.014;8.540;2022-08-03T02:54:58;6.32;;;2.70;;
2187;SDS011;1100;52.014;8.540;2022-08-03T02:57:27;7.03;;;2.70;;
2187;SDS011;1100;52.014;8.540;2022-08-03T02:59:55;5.23;;;2.67;;
2187;SDS011;1100;52.014;8.540;2022-08-03T03:02:22;5.45;;;2.70;;
2187;SDS011;1100;52.014;8.540;2022-08-03T03:04:49;5.22;;;2.50;;
2187;SDS011;1100;52.014;8.540;2022-08-03T03:07:16;6.40;;;2.80;;
2187;SDS011;1100;52.014;8.540;2022-08-03T03:09:42;4.75;;;2.50;;
2187;SDS011;1100;52.014;8.540;2022-08-03T03:12:08;5.47;;;2.47;;
2187;SDS011;1100;52.014;8.540;2022-08-03T03:14:36;6.95;;;2.78;;
2187;SDS011;1100;52.014;8.540;2022-08-03T03:17:02;5.20;;;2.60;;
2187;SDS011;1100;52.014;8.540;2022-08-03T03:19:30;4.85;;;2.60;;
2187;SDS011;1100;52.014;8.540;2022-08-03T03:21:57;5.80;;;2.40;;
2187;SDS011;1100;52.014;8.540;2022-08-03T03:24:25;4.87;;;2.70;;
2187;SDS011;1100;52.014;8.540;2022-08-03T03:26:52;5.30;;;2.60;;
2187;SDS011;1100;52.014;8.540;2022-08-03T03:29:18;7.15;;;2.75;;
2187;SDS011;1100;52.014;8.540;2022-08-03T03:31:44;5.30;;;2.90;;
2187;SDS011;1100;52.014;8.540;2022-08-03T03:34:10;6.55;;;2.60;;
2187;SDS011;1100;52.014;8.540;2022-08-03T03:36:36;5.38;;;2.33;;
2187;SDS011;1100;52.014;8.540;2022-08-03T03:39:01;6.47;;;2.90;;
2187;SDS011;1100;52.014;8.540;2022-08-03T03:41:27;7.07;;;2.80;;
2187;SDS011;1100;52.014;8.540;2022-08-03T03:43:52;5.60;;;2.90;;
2187;SDS011;1100;52.014;8.540;2022-08-03T03:46:18;5.53;;;2.90;;
2187;SDS011;1100;52.014;8.540;2022-08-03T03:48:43;4.70;;;2.38;;
2187;SDS011;1100;52.014;8.540;2022-08-03T03:51:09;5.97;;;2.77;;
2187;SDS011;1100;52.014;8.540;2022-08-03T03:53:35;5.60;;;2.78;;
2187;SDS011;1100;52.014;8.540;2022-08-03T03:56:00;6.03;;;2.80;;
2187;SDS011;1100;52.014;8.540;2022-08-03T03:58:26;6.33;;;3.00;;
2187;SDS011;1100;52.014;8.540;2022-08-03T04:00:51;5.63;;;2.93;;
2187;SDS011;1100;52.014;8.540;2022-08-03T04:03:17;5.65;;;2.88;;
2187;SDS011;1100;52.014;8.540;2022-08-03T04:05:43;5.03;;;2.70;;
2187;SDS011;1100;52.014;8.540;2022-08-03T04:08:27;5.80;;;2.60;;
2187;SDS011;1100;52.014;8.540;2022-08-03T04:13:49;5.20;;;2.40;;
2187;SDS011;1100;52.014;8.540;2022-08-03T04:16:23;7.03;;;2.85;;
2187;SDS011;1100;52.014;8.540;2022-08-03T04:18:53;5.10;;;2.50;;
2187;SDS011;1100;52.014;8.540;2022-08-03T04:21:25;5.63;;;2.50;;
2187;SDS011;1100;52.014;8.540;2022-08-03T04:23:54;5.40;;;2.60;;
2187;SDS011;1100;52.014;8.540;2022-08-03T04:26:25;5.03;;;2.30;;
2187;SDS011;1100;52.014;8.540;2022-08-03T04:28:53;5.15;;;2.15;;
2187;SDS011;1100;52.014;8.540;2022-08-03T04:31:21;4.97;;;2.20;;
2187;SDS011;1100;52.014;8.540;2022-08-03T04:33:48;4.78;;;2.28;;
2187;SDS011;1100;52.014;8.540;2022-08-03T04:36:16;9.67;;;2.23;;
2187;SDS011;1100;52.014;8.540;2022-08-03T04:41:24;5.22;;;2.10;;
2187;SDS011;1100;52.014;8.540;2022-08-03T04:43:52;5.38;;;2.10;;
2187;SDS011;1100;52.014;8.540;2022-08-03T04:46:22;6.28;;;2.60;;
2187;SDS011;1100;52.014;8.540;2022-08-03T04:48:53;30.03;;;19.77;;
2187;SDS011;1100;52.014;8.540;2022-08-03T04:51:20;7.85;;;4.05;;
2187;SDS011;1100;52.014;8.540;2022-08-03T04:53:46;5.28;;;2.20;;
2187;SDS011;1100;52.014;8.540;2022-08-03T04:56:11;4.60;;;2.10;;
2187;SDS011;1100;52.014;8.540;2022-08-03T04:58:37;4.77;;;2.27;;
2187;SDS011;1100;52.014;8.540;2022-08-03T05:01:02;7.28;;;2.42;;
2187;SDS011;1100;52.014;8.540;2022-08-03T05:03:27;8.43;;;4.33;;
2187;SDS011;1100;52.014;8.540;2022-08-03T05:05:53;9.37;;;3.90;;
2187;SDS011;1100;52.014;8.540;2022-08-03T05:08:19;8.82;;;4.95;;
2187;SDS011;1100;52.014;8.540;2022-08-03T05:10:45;6.10;;;2.80;;
2187;SDS011;1100;52.014;8.540;2022-08-03T05:13:10;6.73;;;2.10;;
2187;SDS011;1100;52.014;8.540;2022-08-03T05:15:37;5.47;;;2.15;;
2187;SDS011;1100;52.014;8.540;2022-08-03T05:18:03;4.55;;;1.98;;
2187;SDS011;1100;52.014;8.540;2022-08-03T05:20:28;4.60;;;2.00;;
2187;SDS011;1100;52.014;8.540;2022-08-03T05:22:53;5.63;;;1.90;;
2187;SDS011;1100;52.014;8.540;2022-08-03T05:25:19;6.13;;;2.30;;
2187;SDS011;1100;52.014;8.540;2022-08-03T05:27:44;8.37;;;2.20;;
2187;SDS011;1100;52.014;8.540;2022-08-03T05:30:09;5.70;;;2.13;;
2187;SDS011;1100;52.014;8.540;2022-08-03T05:32:35;5.70;;;2.22;;
2187;SDS011;1100;52.014;8.540;2022-08-03T05:35:00;5.40;;;1.80;;
2187;SDS011;1100;52.014;8.540;2022-08-03T05:37:26;5.80;;;2.20;;
2187;SDS011;1100;52.014;8.540;2022-08-03T05:39:51;4.27;;;1.80;;
2187;SDS011;1100;52.014;8.540;2022-08-03T05:42:16;6.73;;;2.50;;
2187;SDS011;1100;52.014;8.540;2022-08-03T05:44:42;4.65;;;1.92;;
2187;SDS011;1100;52.014;8.540;2022-08-03T05:47:07;5.00;;;1.90;;
2187;SDS011;1100;52.014;8.540;2022-08-03T05:49:32;4.97;;;1.80;;
2187;SDS011;1100;52.014;8.540;2022-08-03T05:51:57;5.23;;;1.70;;
2187;SDS011;1100;52.014;8.540;2022-08-03T05:54:23;5.70;;;2.20;;
2187;SDS011;1100;52.014;8.540;2022-08-03T05:56:48;6.03;;;1.90;;
2187;SDS011;1100;52.014;8.540;2022-08-03T05:59:14;4.70;;;1.60;;
2187;SDS011;1100;52.014;8.540;2022-08-03T06:01:39;4.90;;;2.03;;
2187;SDS011;1100;52.014;8.540;2022-08-03T06:04:04;5.30;;;2.27;;
2187;SDS011;1100;52.014;8.540;2022-08-03T06:06:30;6.70;;;2.33;;
2187;SDS011;1100;52.014;8.540;2022-08-03T06:08:55;4.50;;;1.93;;
2187;SDS011;1100;52.014;8.540;2022-08-03T06:11:20;7.13;;;2.10;;
2187;SDS011;1100;52.014;8.540;2022-08-03T06:13:46;5.43;;;1.80;;
2187;SDS011;1100;52.014;8.540;2022-08-03T06:16:11;4.90;;;1.90;;
2187;SDS011;1100;52.014;8.540;2022-08-03T06:18:36;5.23;;;1.70;;
2187;SDS011;1100;52.014;8.540;2022-08-03T06:21:02;3.93;;;1.60;;
2187;SDS011;1100;52.014;8.540;2022-08-03T06:23:28;4.85;;;1.92;;
2187;SDS011;1100;52.014;8.540;2022-08-03T06:25:53;7.03;;;2.20;;
2187;SDS011;1100;52.014;8.540;2022-08-03T06:28:18;5.37;;;2.10;;
2187;SDS011;1100;52.014;8.540;2022-08-03T06:30:44;6.57;;;1.87;;
2187;SDS011;1100;52.014;8.540;2022-08-03T06:33:10;6.53;;;2.13;;
2187;SDS011;1100;52.014;8.540;2022-08-03T06:35:35;6.33;;;2.00;;
2187;SDS011;1100;52.014;8.540;2022-08-03T06:38:01;5.05;;;2.00;;
2187;SDS011;1100;52.014;8.540;2022-08-03T06:40:26;5.77;;;2.00;;
2187;SDS011;1100;52.014;8.540;2022-08-03T06:42:59;4.20;;;1.85;;
2187;SDS011;1100;52.014;8.540;2022-08-03T06:45:26;4.77;;;1.93;;
2187;SDS011;1100;52.014;8.540;2022-08-03T06:48:02;4.07;;;1.73;;
2187;SDS011;1100;52.014;8.540;2022-08-03T06:50:29;4.53;;;1.83;;
2187;SDS011;1100;52.014;8.540;2022-08-03T06:52:55;4.70;;;1.80;;
2187;SDS011;1100;52.014;8.540;2022-08-03T06:55:21;4.60;;;1.80;;
2187;SDS011;1100;52.014;8.540;2022-08-03T06:57:46;6.38;;;1.98;;
2187;SDS011;1100;52.014;8.540;2022-08-03T07:00:12;4.47;;;1.70;;
2187;SDS011;1100;52.014;8.540;2022-08-03T07:02:38;5.57;;;1.90;;
2187;SDS011;1100;52.014;8.540;2022-08-03T07:05:04;5.83;;;2.90;;
2187;SDS011;1100;52.014;8.540;2022-08-03T07:07:30;9.57;;;2.40;;
2187;SDS011;1100;52.014;8.540;2022-08-03T07:09:55;5.57;;;2.37;;
2187;SDS011;1100;52.014;8.540;2022-08-03T07:12:20;4.77;;;2.10;;
2187;SDS011;1100;52.014;8.540;2022-08-03T07:14:46;5.77;;;2.60;;
2187;SDS011;1100;52.014;8.540;2022-08-03T07:17:11;6.83;;;2.23;;
2187;SDS011;1100;52.014;8.540;2022-08-03T07:19:36;5.80;;;2.67;;
2187;SDS011;1100;52.014;8.540;2022-08-03T07:22:02;5.75;;;2.10;;
2187;SDS011;1100;52.014;8.540;2022-08-03T07:24:27;7.07;;;2.00;;
2187;SDS011;1100;52.014;8.540;2022-08-03T07:26:53;5.60;;;2.30;;
2187;SDS011;1100;52.014;8.540;2022-08-03T07:29:18;6.85;;;2.40;;
2187;SDS011;1100;52.014;8.540;2022-08-03T07:31:44;5.53;;;1.70;;
2187;SDS011;1100;52.014;8.540;2022-08-03T07:34:09;4.20;;;1.90;;
2187;SDS011;1100;52.014;8.540;2022-08-03T07:36:35;6.47;;;1.80;;
2187;SDS011;1100;52.014;8.540;2022-08-03T07:39:01;5.80;;;2.00;;
2187;SDS011;1100;52.014;8.540;2022-08-03T07:41:26;5.47;;;2.13;;
2187;SDS011;1100;52.014;8.540;2022-08-03T07:43:52;6.75;;;1.95;;
2187;SDS011;1100;52.014;8.540;2022-08-03T07:46:17;6.23;;;1.97;;
2187;SDS011;1100;52.014;8.540;2022-08-03T07:48:42;9.20;;;1.80;;
2187;SDS011;1100;52.014;8.540;2022-08-03T07:51:07;5.93;;;2.00;;
2187;SDS011;1100;52.014;8.540;2022-08-03T07:53:33;5.73;;;1.73;;
2187;SDS011;1100;52.014;8.540;2022-08-03T07:55:58;5.50;;;1.90;;
2187;SDS011;1100;52.014;8.540;2022-08-03T07:58:23;7.60;;;1.73;;
2187;SDS011;1100;52.014;8.540;2022-08-03T08:00:49;7.40;;;1.87;;
2187;SDS011;1100;52.014;8.540;2022-08-03T08:03:16;5.72;;;1.95;;
2187;SDS011;1100;52.014;8.540;2022-08-03T08:05:42;5.73;;;1.80;;
2187;SDS011;1100;52.014;8.540;2022-08-03T08:08:08;7.33;;;2.10;;
2187;SDS011;1100;52.014;8.540;2022-08-03T08:10:34;4.57;;;1.75;;
2187;SDS011;1100;52.014;8.540;2022-08-03T08:12:59;5.75;;;2.10;;
2187;SDS011;1100;52.014;8.540;2022-08-03T08:15:25;5.40;;;2.07;;
2187;SDS011;1100;52.014;8.540;2022-08-03T08:17:55;5.28;;;1.88;;
2187;SDS011;1100;52.014;8.540;2022-08-03T08:20:26;5.20;;;1.83;;
2187;SDS011;1100;52.014;8.540;2022-08-03T08:22:57;4.88;;;2.00;;
2187;SDS011;1100;52.014;8.540;2022-08-03T08:25:24;7.47;;;1.83;;
2187;SDS011;1100;52.014;8.540;2022-08-03T08:27:50;6.68;;;2.20;;
2187;SDS011;1100;52.014;8.540;2022-08-03T08:30:17;7.93;;;2.17;;
2187;SDS011;1100;52.014;8.540;2022-08-03T08:32:44;5.13;;;1.87;;
2187;SDS011;1100;52.014;8.540;2022-08-03T08:35:09;5.45;;;2.15;;
2187;SDS011;1100;52.014;8.540;2022-08-03T08:37:36;5.63;;;2.30;;
2187;SDS011;1100;52.014;8.540;2022-08-03T08:40:01;6.53;;;2.33;;
2187;SDS011;1100;52.014;8.540;2022-08-03T08:42:27;5.82;;;2.20;;
2187;SDS011;1100;52.014;8.540;2022-08-03T08:44:53;5.17;;;1.80;;
2187;SDS011;1100;52.014;8.540;2022-08-03T08:47:19;8.45;;;2.50;;
2187;SDS011;1100;52.014;8.540;2022-08-03T08:49:50;5.87;;;1.97;;
2187;SDS011;1100;52.014;8.540;2022-08-03T08:52:18;5.32;;;2.08;;
2187;SDS011;1100;52.014;8.540;2022-08-03T08:54:47;6.05;;;2.30;;
2187;SDS011;1100;52.014;8.540;2022-08-03T08:57:13;6.03;;;2.33;;
2187;SDS011;1100;52.014;8.540;2022-08-03T08:59:40;6.03;;;2.05;;
2187;SDS011;1100;52.014;8.540;2022-08-03T09:02:07;7.50;;;2.43;;
2187;SDS011;1100;52.014;8.540;2022-08-03T09:04:33;7.38;;;2.20;;
2187;SDS011;1100;52.014;8.540;2022-08-03T09:07:02;8.85;;;1.80;;
2187;SDS011;1100;52.014;8.540;2022-08-03T09:09:28;5.37;;;1.60;;
2187;SDS011;1100;52.014;8.540;2022-08-03T09:11:54;4.78;;;2.10;;
2187;SDS011;1100;52.014;8.540;2022-08-03T09:14:20;5.33;;;2.20;;
2187;SDS011;1100;52.014;8.540;2022-08-03T09:16:58;7.75;;;2.50;;
2187;SDS011;1100;52.014;8.540;2022-08-03T09:19:28;7.20;;;2.55;;
2187;SDS011;1100;52.014;8.540;2022-08-03T09:22:13;5.97;;;2.80;;
2187;SDS011;1100;52.014;8.540;2022-08-03T09:24:58;7.10;;;3.00;;
2187;SDS011;1100;52.014;8.540;2022-08-03T09:27:40;6.25;;;2.55;;
2187;SDS011;1100;52.014;8.540;2022-08-03T09:30:11;6.57;;;2.85;;
2187;SDS011;1100;52.014;8.540;2022-08-03T09:32:38;6.57;;;2.40;;
2187;SDS011;1100;52.014;8.540;2022-08-03T09:35:04;5.83;;;2.13;;
2187;SDS011;1100;52.014;8.540;2022-08-03T09:37:30;6.95;;;2.63;;
2187;SDS011;1100;52.014;8.540;2022-08-03T09:39:55;6.37;;;2.23;;
2187;SDS011;1100;52.014;8.540;2022-08-03T09:42:20;5.87;;;1.70;;
2187;SDS011;1100;52.014;8.540;2022-08-03T09:44:51;5.38;;;2.50;;
2187;SDS011;1100;52.014;8.540;2022-08-03T09:49:56;5.65;;;1.50;;
2187;SDS011;1100;52.014;8.540;2022-08-03T09:52:44;7.10;;;2.20;;
2187;SDS011;1100;52.014;8.540;2022-08-03T09:55:12;4.32;;;1.77;;
2187;SDS011;1100;52.014;8.540;2022-08-03T09:57:38;8.18;;;2.90;;
2187;SDS011;1100;52.014;8.540;2022-08-03T10:00:09;7.10;;;2.57;;
2187;SDS011;1100;52.014;8.540;2022-08-03T10:02:38;6.38;;;2.70;;
2187;SDS011;1100;52.014;8.540;2022-08-03T10:05:05;5.60;;;2.40;;
2187;SDS011;1100;52.014;8.540;2022-08-03T10:07:42;6.93;;;2.45;;
2187;SDS011;1100;52.014;8.540;2022-08-03T10:10:11;6.10;;;2.30;;
2187;SDS011;1100;52.014;8.540;2022-08-03T10:12:37;6.33;;;2.37;;
2187;SDS011;1100;52.014;8.540;2022-08-03T10:15:04;7.85;;;2.10;;
2187;SDS011;1100;52.014;8.540;2022-08-03T10:17:30;4.95;;;1.95;;
2187;SDS011;1100;52.014;8.540;2022-08-03T10:19:55;6.67;;;2.03;;
2187;SDS011;1100;52.014;8.540;2022-08-03T10:22:23;6.50;;;2.97;;
2187;SDS011;1100;52.014;8.540;2022-08-03T10:24:52;5.97;;;1.80;;
2187;SDS011;1100;52.014;8.540;2022-08-03T10:27:23;4.63;;;1.92;;
2187;SDS011;1100;52.014;8.540;2022-08-03T10:29:52;5.67;;;1.70;;
2187;SDS011;1100;52.014;8.540;2022-08-03T10:32:27;7.28;;;2.38;;
2187;SDS011;1100;52.014;8.540;2022-08-03T10:34:58;5.57;;;2.22;;
2187;SDS011;1100;52.014;8.540;2022-08-03T10:37:29;5.45;;;1.90;;
2187;SDS011;1100;52.014;8.540;2022-08-03T10:39:56;4.63;;;1.73;;
2187;SDS011;1100;52.014;8.540;2022-08-03T10:42:24;5.40;;;1.90;;
2187;SDS011;1100;52.014;8.540;2022-08-03T10:44:55;4.57;;;1.65;;
2187;SDS011;1100;52.014;8.540;2022-08-03T10:47:28;5.93;;;1.80;;
2187;SDS011;1100;52.014;8.540;2022-08-03T10:49:54;6.07;;;1.98;;
2187;SDS011;1100;52.014;8.540;2022-08-03T10:52:20;6.60;;;2.10;;
2187;SDS011;1100;52.014;8.540;2022-08-03T10:54:45;8.33;;;1.70;;
2187;SDS011;1100;52.014;8.540;2022-08-03T11:00:15;4.87;;;1.70;;
2187;SDS011;1100;52.014;8.540;2022-08-03T11:05:30;6.97;;;2.00;;
2187;SDS011;1100;52.014;8.540;2022-08-03T11:08:18;5.30;;;1.70;;
2187;SDS011;1100;52.014;8.540;2022-08-03T11:10:43;6.90;;;1.75;;
2187;SDS011;1100;52.014;8.540;2022-08-03T11:13:09;8.07;;;2.27;;
2187;SDS011;1100;52.014;8.540;2022-08-03T11:15:39;5.10;;;1.80;;
2187;SDS011;1100;52.014;8.540;2022-08-03T11:18:08;13.18;;;1.90;;
2187;SDS011;1100;52.014;8.540;2022-08-03T11:20:43;6.33;;;1.63;;
2187;SDS011;1100;52.014;8.540;2022-08-03T11:23:12;7.15;;;1.60;;
2187;SDS011;1100;52.014;8.540;2022-08-03T11:26:06;6.38;;;1.92;;
2187;SDS011;1100;52.014;8.540;2022-08-03T11:28:46;5.43;;;1.70;;
2187;SDS011;1100;52.014;8.540;2022-08-03T11:34:04;7.13;;;2.23;;
2187;SDS011;1100;52.014;8.540;2022-08-03T11:36:30;8.05;;;3.47;;
2187;SDS011;1100;52.014;8.540;2022-08-03T11:39:15;7.10;;;2.50;;
2187;SDS011;1100;52.014;8.540;2022-08-03T11:41:41;5.00;;;2.03;;
2187;SDS011;1100;52.014;8.540;2022-08-03T11:44:06;6.20;;;2.00;;
2187;SDS011;1100;52.014;8.540;2022-08-03T11:46:36;7.03;;;2.20;;
2187;SDS011;1100;52.014;8.540;2022-08-03T11:49:05;6.63;;;1.80;;
2187;SDS011;1100;52.014;8.540;2022-08-03T11:51:34;7.47;;;1.97;;
2187;SDS011;1100;52.014;8.540;2022-08-03T11:54:01;7.25;;;1.90;;
2187;SDS011;1100;52.014;8.540;2022-08-03T11:56:28;5.40;;;2.00;;
2187;SDS011;1100;52.014;8.540;2022-08-03T11:59:07;5.85;;;1.85;;
2187;SDS011;1100;52.014;8.540;2022-08-03T12:01:32;5.40;;;1.60;;
2187;SDS011;1100;52.014;8.540;2022-08-03T12:04:01;4.93;;;1.63;;
2187;SDS011;1100;52.014;8.540;2022-08-03T12:06:28;6.30;;;2.10;;
2187;SDS011;1100;52.014;8.540;2022-08-03T12:08:53;6.83;;;2.10;;
2187;SDS011;1100;52.014;8.540;2022-08-03T12:11:19;5.60;;;1.93;;
2187;SDS011;1100;52.014;8.540;2022-08-03T12:13:45;6.13;;;2.10;;
2187;SDS011;1100;52.014;8.540;2022-08-03T12:18:44;7.38;;;2.60;;
2187;SDS011;1100;52.014;8.540;2022-08-03T12:21:18;6.50;;;2.07;;
2187;SDS011;1100;52.014;8.540;2022-08-03T12:23:48;5.93;;;1.92;;
2187;SDS011;1100;52.014;8.540;2022-08-03T12:26:13;8.10;;;1.80;;
2187;SDS011;1100;52.014;8.540;2022-08-03T12:28:39;7.57;;;1.80;;
2187;SDS011;1100;52.014;8.540;2022-08-03T12:31:12;7.72;;;1.92;;
2187;SDS011;1100;52.014;8.540;2022-08-03T12:33:57;6.00;;;1.80;;
2187;SDS011;1100;52.014;8.540;2022-08-03T12:36:27;4.97;;;1.90;;
2187;SDS011;1100;52.014;8.540;2022-08-03T12:38:57;7.45;;;1.77;;
2187;SDS011;1100;52.014;8.540;2022-08-03T12:41:37;6.57;;;2.20;;
2187;SDS011;1100;52.014;8.540;2022-08-03T12:44:05;6.10;;;2.00;;
2187;SDS011;1100;52.014;8.540;2022-08-03T12:54:06;6.03;;;1.70;;
2187;SDS011;1100;52.014;8.540;2022-08-03T12:56:32;5.30;;;1.90;;
2187;SDS011;1100;52.014;8.540;2022-08-03T12:58:57;6.73;;;2.03;;
2187;SDS011;1100;52.014;8.540;2022-08-03T13:01:22;5.87;;;1.83;;
2187;SDS011;1100;52.014;8.540;2022-08-03T13:03:48;7.33;;;2.13;;
2187;SDS011;1100;52.014;8.540;2022-08-03T13:06:18;6.47;;;2.17;;
2187;SDS011;1100;52.014;8.540;2022-08-03T13:09:00;5.82;;;2.00;;
2187;SDS011;1100;52.014;8.540;2022-08-03T13:11:29;6.13;;;2.03;;
2187;SDS011;1100;52.014;8.540;2022-08-03T13:13:55;5.23;;;1.77;;
2187;SDS011;1100;52.014;8.540;2022-08-03T13:16:21;6.13;;;1.80;;
2187;SDS011;1100;52.014;8.540;2022-08-03T13:18:47;4.78;;;1.83;;
2187;SDS011;1100;52.014;8.540;2022-08-03T13:21:16;6.35;;;1.90;;
2187;SDS011;1100;52.014;8.540;2022-08-03T13:23:43;5.28;;;1.88;;
2187;SDS011;1100;52.014;8.540;2022-08-03T13:26:09;75.03;;;48.30;;
2187;SDS011;1100;52.014;8.540;2022-08-03T13:28:34;242.48;;;190.32;;
2187;SDS011;1100;52.014;8.540;2022-08-03T13:31:00;103.57;;;74.27;;
2187;SDS011;1100;52.014;8.540;2022-08-03T13:33:26;132.07;;;100.40;;
2187;SDS011;1100;52.014;8.540;2022-08-03T13:35:52;174.93;;;127.87;;
2187;SDS011;1100;52.014;8.540;2022-08-03T13:38:17;211.82;;;152.50;;
2187;SDS011;1100;52.014;8.540;2022-08-03T13:40:43;203.07;;;143.67;;
2187;SDS011;1100;52.014;8.540;2022-08-03T13:43:08;96.13;;;65.90;;
2187;SDS011;1100;52.014;8.540;2022-08-03T13:45:34;144.90;;;104.37;;
2187;SDS011;1100;52.014;8.540;2022-08-03T13:47:59;143.98;;;103.35;;
2187;SDS011;1100;52.014;8.540;2022-08-03T13:50:25;127.63;;;91.07;;
2187;SDS011;1100;52.014;8.540;2022-08-03T13:52:51;116.07;;;82.15;;
2187;SDS011;1100;52.014;8.540;2022-08-03T13:55:16;101.83;;;71.53;;
2187;SDS011;1100;52.014;8.540;2022-08-03T13:57:42;93.83;;;67.03;;
2187;SDS011;1100;52.014;8.540;2022-08-03T14:00:07;58.77;;;40.73;;
2187;SDS011;1100;52.014;8.540;2022-08-03T14:02:33;74.07;;;54.55;;
2187;SDS011;1100;52.014;8.540;2022-08-03T14:04:58;70.70;;;53.13;;
2187;SDS011;1100;52.014;8.540;2022-08-03T14:07:24;55.37;;;41.53;;
2187;SDS011;1100;52.014;8.540;2022-08-03T14:09:49;46.50;;;33.80;;
2187;SDS011;1100;52.014;8.540;2022-08-03T14:12:14;29.43;;;20.97;;
2187;SDS011;1100;52.014;8.540;2022-08-03T14:14:40;41.60;;;31.67;;
2187;SDS011;1100;52.014;8.540;2022-08-03T14:17:05;51.67;;;39.73;;
2187;SDS011;1100;52.014;8.540;2022-08-03T14:19:31;13.37;;;9.40;;
2187;SDS011;1100;52.014;8.540;2022-08-03T14:21:56;14.50;;;9.70;;
2187;SDS011;1100;52.014;8.540;2022-08-03T14:24:22;14.40;;;10.45;;
2187;SDS011;1100;52.014;8.540;2022-08-03T14:26:47;11.20;;;7.13;;
2187;SDS011;1100;52.014;8.540;2022-08-03T14:29:13;21.45;;;15.95;;
2187;SDS011;1100;52.014;8.540;2022-08-03T14:31:38;42.73;;;33.33;;
2187;SDS011;1100;52.014;8.540;2022-08-03T14:34:03;35.43;;;28.43;;
2187;SDS011;1100;52.014;8.540;2022-08-03T14:36:29;19.67;;;13.83;;
2187;SDS011;1100;52.014;8.540;2022-08-03T14:38:54;34.13;;;27.33;;
2187;SDS011;1100;52.014;8.540;2022-08-03T14:41:20;8.90;;;4.87;;
2187;SDS011;1100;52.014;8.540;2022-08-03T14:43:45;17.02;;;11.63;;
2187;SDS011;1100;52.014;8.540;2022-08-03T14:46:11;28.13;;;19.40;;
2187;SDS011;1100;52.014;8.540;2022-08-03T14:48:36;13.83;;;10.10;;
2187;SDS011;1100;52.014;8.540;2022-08-03T14:51:01;16.30;;;11.83;;
2187;SDS011;1100;52.014;8.540;2022-08-03T14:53:27;15.50;;;10.98;;
2187;SDS011;1100;52.014;8.540;2022-08-03T14:55:53;17.63;;;12.20;;
2187;SDS011;1100;52.014;8.540;2022-08-03T14:58:19;21.92;;;15.95;;
2187;SDS011;1100;52.014;8.540;2022-08-03T15:00:45;13.83;;;8.53;;
2187;SDS011;1100;52.014;8.540;2022-08-03T15:03:10;18.27;;;13.90;;
2187;SDS011;1100;52.014;8.540;2022-08-03T15:05:35;30.25;;;15.10;;
2187;SDS011;1100;52.014;8.540;2022-08-03T15:08:01;4.93;;;2.13;;
2187;SDS011;1100;52.014;8.540;2022-08-03T15:10:26;6.20;;;1.97;;
2187;SDS011;1100;52.014;8.540;2022-08-03T15:12:51;9.50;;;2.10;;
2187;SDS011;1100;52.014;8.540;2022-08-03T15:15:19;6.30;;;2.10;;
2187;SDS011;1100;52.014;8.540;2022-08-03T15:17:44;6.80;;;2.10;;
2187;SDS011;1100;52.014;8.540;2022-08-03T15:20:09;6.47;;;2.00;;
2187;SDS011;1100;52.014;8.540;2022-08-03T15:22:37;5.95;;;1.77;;
2187;SDS011;1100;52.014;8.540;2022-08-03T15:25:04;5.47;;;1.63;;
2187;SDS011;1100;52.014;8.540;2022-08-03T15:27:30;6.68;;;2.00;;
2187;SDS011;1100;52.014;8.540;2022-08-03T15:29:55;7.07;;;2.23;;
2187;SDS011;1100;52.014;8.540;2022-08-03T15:32:20;4.87;;;1.60;;
2187;SDS011;1100;52.014;8.540;2022-08-03T15:34:46;5.20;;;1.77;;
2187;SDS011;1100;52.014;8.540;2022-08-03T15:37:11;5.63;;;2.00;;
2187;SDS011;1100;52.014;8.540;2022-08-03T15:39:37;5.83;;;2.00;;
2187;SDS011;1100;52.014;8.540;2022-08-03T15:42:02;6.77;;;1.73;;
2187;SDS011;1100;52.014;8.540;2022-08-03T15:44:28;8.65;;;1.88;;
2187;SDS011;1100;52.014;8.540;2022-08-03T15:46:53;6.97;;;1.93;;
2187;SDS011;1100;52.014;8.540;2022-08-03T15:49:18;7.37;;;1.80;;
2187;SDS011;1100;52.014;8.540;2022-08-03T15:51:44;5.70;;;1.83;;
2187;SDS011;1100;52.014;8.540;2022-08-03T15:54:10;6.68;;;1.83;;